createdAt,value
2018-06-17T00:00:36.531Z,13.80
2018-06-17T00:05:33.249Z,13.60
2018-06-17T00:08:01.757Z,13.60
2018-06-17T00:10:30.231Z,13.50
2018-06-17T00:12:58.703Z,13.50
2018-06-17T00:15:27.137Z,13.40
2018-06-17T00:17:55.616Z,13.40
2018-06-17T00:20:24.212Z,13.40
2018-06-17T00:22:52.811Z,13.30
2018-06-17T00:25:21.325Z,13.20
2018-06-17T00:27:49.811Z,13.20
2018-06-17T00:30:18.293Z,13.10
2018-06-17T00:32:46.784Z,13.10
2018-06-17T00:35:15.241Z,13.10
2018-06-17T00:37:43.720Z,13.10
2018-06-17T00:40:12.348Z,13.00
2018-06-17T00:42:40.985Z,13.00
2018-06-17T00:45:09.545Z,12.90
2018-06-17T00:47:38.133Z,12.80
2018-06-17T00:50:06.644Z,12.70
2018-06-17T00:52:35.142Z,12.70
2018-06-17T00:55:03.687Z,12.70
2018-06-17T00:57:45.143Z,12.70
2018-06-17T01:02:42.252Z,12.50
2018-06-17T01:05:10.746Z,12.50
2018-06-17T01:07:39.226Z,12.40
2018-06-17T01:10:07.756Z,12.50
2018-06-17T01:12:36.397Z,12.50
2018-06-17T01:15:04.957Z,12.50
2018-06-17T01:17:33.405Z,12.50
2018-06-17T01:20:01.920Z,12.50
2018-06-17T01:22:30.436Z,12.40
2018-06-17T01:24:58.910Z,12.40
2018-06-17T01:27:27.344Z,12.40
2018-06-17T01:29:56.017Z,12.20
2018-06-17T01:34:52.728Z,12.20
2018-06-17T01:37:21.340Z,12.10
2018-06-17T01:39:49.846Z,12.10
2018-06-17T01:42:18.652Z,12.20
2018-06-17T01:44:47.069Z,12.10
2018-06-17T01:47:16.384Z,12.10
2018-06-17T01:49:44.946Z,12.00
2018-06-17T01:52:13.535Z,12.00
2018-06-17T01:54:42.240Z,12.00
2018-06-17T01:57:10.900Z,12.00
2018-06-17T01:59:39.395Z,12.10
2018-06-17T02:02:07.948Z,12.20
2018-06-17T02:04:41.589Z,12.20
2018-06-17T02:07:15.554Z,12.20
2018-06-17T02:09:49.744Z,12.10
2018-06-17T02:12:19.737Z,12.10
2018-06-17T02:14:53.665Z,12.10
2018-06-17T02:17:23.385Z,12.10
2018-06-17T02:19:52.766Z,12.20
2018-06-17T02:22:21.384Z,12.20
2018-06-17T02:24:50.017Z,12.40
2018-06-17T02:27:19.444Z,12.40
2018-06-17T02:29:47.907Z,12.50
2018-06-17T02:32:16.469Z,12.60
2018-06-17T02:34:45.024Z,12.80
2018-06-17T02:37:13.641Z,12.90
2018-06-17T02:39:42.122Z,13.10
2018-06-17T02:42:11.016Z,13.20
2018-06-17T02:44:39.536Z,13.20
2018-06-17T02:47:13.474Z,13.30
2018-06-17T02:49:45.422Z,13.30
2018-06-17T02:52:19.519Z,13.40
2018-06-17T02:54:48.848Z,13.40
2018-06-17T02:57:18.732Z,13.40
2018-06-17T02:59:47.685Z,13.40
2018-06-17T03:02:16.695Z,13.40
2018-06-17T03:04:45.201Z,13.40
2018-06-17T03:07:13.694Z,13.40
2018-06-17T03:09:42.320Z,13.40
2018-06-17T03:12:10.851Z,13.40
2018-06-17T03:14:39.412Z,13.40
2018-06-17T03:17:07.968Z,13.40
2018-06-17T03:19:36.497Z,13.40
2018-06-17T03:22:04.994Z,13.50
2018-06-17T03:24:38.807Z,13.60
2018-06-17T03:27:12.518Z,13.60
2018-06-17T03:29:46.839Z,13.60
2018-06-17T03:32:20.862Z,13.70
2018-06-17T03:34:54.801Z,13.70
2018-06-17T03:37:23.620Z,13.80
2018-06-17T03:39:52.165Z,13.80
2018-06-17T03:42:21.011Z,13.80
2018-06-17T03:44:50.013Z,13.90
2018-06-17T03:47:18.550Z,13.90
2018-06-17T03:49:47.134Z,14.00
2018-06-17T03:52:15.634Z,14.00
2018-06-17T03:54:44.132Z,14.10
2018-06-17T03:57:12.617Z,14.10
2018-06-17T03:59:41.077Z,14.20
2018-06-17T04:02:09.914Z,14.30
2018-06-17T04:04:43.693Z,14.40
2018-06-17T04:07:12.173Z,14.40
2018-06-17T04:09:40.685Z,14.50
2018-06-17T04:14:37.668Z,14.60
2018-06-17T04:17:11.474Z,14.70
2018-06-17T04:22:08.073Z,14.80
2018-06-17T04:24:36.524Z,14.80
2018-06-17T04:27:05.623Z,14.90
2018-06-17T04:29:34.374Z,14.90
2018-06-17T04:32:02.842Z,14.90
2018-06-17T04:34:31.435Z,15.00
2018-06-17T04:36:59.930Z,15.10
2018-06-17T04:39:28.453Z,15.20
2018-06-17T04:41:56.950Z,15.30
2018-06-17T04:44:25.751Z,15.30
2018-06-17T04:46:54.228Z,15.40
2018-06-17T04:49:22.768Z,15.40
2018-06-17T04:51:51.225Z,15.50
2018-06-17T04:54:19.821Z,15.60
2018-06-17T04:56:48.348Z,15.90
2018-06-17T04:59:17.033Z,16.10
2018-06-17T05:01:46.068Z,16.20
2018-06-17T05:04:14.881Z,16.80
2018-06-17T05:06:43.563Z,16.90
2018-06-17T05:09:12.150Z,17.00
2018-06-17T05:11:40.677Z,17.00
2018-06-17T05:14:09.157Z,16.90
2018-06-17T05:16:37.744Z,16.90
2018-06-17T05:19:06.199Z,16.90
2018-06-17T05:21:34.929Z,17.00
2018-06-17T05:24:03.601Z,17.70
2018-06-17T05:26:32.097Z,18.10
2018-06-17T05:29:00.592Z,18.30
2018-06-17T05:31:29.450Z,18.10
2018-06-17T05:33:57.922Z,17.90
2018-06-17T05:36:26.490Z,17.80
2018-06-17T05:38:55.001Z,17.90
2018-06-17T05:41:23.511Z,17.60
2018-06-17T05:43:52.037Z,17.60
2018-06-17T05:46:20.493Z,17.50
2018-06-17T05:48:49.164Z,17.50
2018-06-17T05:51:17.697Z,17.70
2018-06-17T05:53:46.252Z,17.60
2018-06-17T05:56:14.807Z,17.50
2018-06-17T05:58:43.282Z,17.40
2018-06-17T06:01:11.886Z,17.70
2018-06-17T06:03:40.388Z,17.90
2018-06-17T06:06:08.866Z,18.70
2018-06-17T06:08:37.415Z,19.30
2018-06-17T06:11:06.139Z,19.70
2018-06-17T06:13:34.603Z,19.70
2018-06-17T06:16:05.414Z,19.70
2018-06-17T06:18:34.227Z,19.80
2018-06-17T06:21:02.763Z,19.70
2018-06-17T06:23:32.056Z,19.70
2018-06-17T06:26:01.405Z,19.40
2018-06-17T06:28:30.403Z,20.00
2018-06-17T06:30:59.797Z,20.90
2018-06-17T06:35:56.630Z,22.90
2018-06-17T06:38:25.199Z,23.00
2018-06-17T06:40:54.061Z,22.80
2018-06-17T06:43:22.969Z,23.70
2018-06-17T06:45:51.579Z,23.20
2018-06-17T06:48:20.222Z,22.50
2018-06-17T06:50:49.201Z,22.00
2018-06-17T06:53:17.996Z,21.80
2018-06-17T06:55:46.630Z,22.20
2018-06-17T06:58:18.574Z,20.90
2018-06-17T07:03:26.778Z,20.70
2018-06-17T07:06:06.387Z,20.90
2018-06-17T07:08:46.294Z,21.30
2018-06-17T07:11:15.245Z,21.10
2018-06-17T07:13:43.904Z,21.00
2018-06-17T07:16:23.820Z,21.20
2018-06-17T07:18:52.466Z,21.60
2018-06-17T07:21:21.669Z,23.00
2018-06-17T07:23:50.375Z,23.20
2018-06-17T07:27:05.198Z,22.40
2018-06-17T07:29:44.481Z,21.80
2018-06-17T07:32:13.148Z,20.90
2018-06-17T07:34:41.847Z,20.70
2018-06-17T07:37:10.506Z,20.20
2018-06-17T07:40:20.442Z,20.20
2018-06-17T07:42:49.796Z,20.20
2018-06-17T07:45:18.363Z,19.90
2018-06-17T07:47:47.186Z,20.10
2018-06-17T07:50:27.438Z,20.40
2018-06-17T07:53:07.145Z,20.10
2018-06-17T07:55:35.984Z,20.10
2018-06-17T07:58:04.602Z,19.80
2018-06-17T08:00:33.601Z,19.70
2018-06-17T08:03:04.992Z,20.00
2018-06-17T08:05:34.193Z,20.50
2018-06-17T08:08:02.752Z,20.70
2018-06-17T08:10:31.356Z,21.40
2018-06-17T08:12:59.888Z,22.10
2018-06-17T08:15:28.372Z,22.30
2018-06-17T08:17:57.585Z,22.60
2018-06-17T08:20:26.889Z,22.80
2018-06-17T08:22:55.659Z,23.00
2018-06-17T08:25:24.319Z,22.80
2018-06-17T08:27:53.112Z,22.50
2018-06-17T08:30:21.853Z,23.00
2018-06-17T08:32:50.340Z,23.10
2018-06-17T08:35:18.832Z,23.30
2018-06-17T08:37:47.329Z,23.50
2018-06-17T08:40:15.830Z,23.60
2018-06-17T08:42:44.459Z,24.00
2018-06-17T08:45:13.045Z,24.70
2018-06-17T08:47:42.277Z,24.70
2018-06-17T08:50:11.345Z,24.50
2018-06-17T08:52:40.303Z,24.10
2018-06-17T08:55:08.989Z,23.40
2018-06-17T08:57:37.512Z,22.70
2018-06-17T09:00:06.516Z,22.60
2018-06-17T09:02:35.013Z,22.20
2018-06-17T09:05:03.657Z,22.00
2018-06-17T09:07:32.917Z,22.40
2018-06-17T09:10:01.425Z,23.00
2018-06-17T09:12:29.861Z,23.80
2018-06-17T09:14:59.604Z,24.30
2018-06-17T09:17:28.444Z,24.20
2018-06-17T09:19:57.030Z,23.70
2018-06-17T09:22:25.585Z,23.60
2018-06-17T09:24:54.343Z,23.90
2018-06-17T09:27:23.024Z,23.80
2018-06-17T09:29:51.530Z,23.70
2018-06-17T09:32:20.161Z,23.60
2018-06-17T09:34:48.662Z,23.30
2018-06-17T09:37:17.189Z,23.30
2018-06-17T09:39:45.755Z,22.70
2018-06-17T09:42:14.351Z,22.30
2018-06-17T09:44:43.641Z,22.40
2018-06-17T09:47:12.531Z,22.80
2018-06-17T09:49:42.545Z,23.10
2018-06-17T09:52:11.246Z,23.00
2018-06-17T09:54:40.901Z,23.30
2018-06-17T09:57:09.491Z,22.70
2018-06-17T09:59:38.017Z,22.40
2018-06-17T10:02:06.734Z,22.10
2018-06-17T10:04:35.253Z,21.90
2018-06-17T10:07:04.005Z,22.50
2018-06-17T10:09:35.573Z,23.50
2018-06-17T10:12:04.085Z,24.00
2018-06-17T10:14:32.699Z,24.70
2018-06-17T10:17:01.205Z,24.50
2018-06-17T10:19:29.691Z,23.30
2018-06-17T10:21:58.464Z,22.30
2018-06-17T10:24:27.059Z,22.10
2018-06-17T10:26:56.127Z,22.30
2018-06-17T10:29:24.842Z,21.90
2018-06-17T10:31:53.313Z,21.90
2018-06-17T10:34:21.844Z,22.00
2018-06-17T10:36:51.072Z,23.80
2018-06-17T10:39:19.617Z,23.90
2018-06-17T10:41:48.835Z,24.10
2018-06-17T10:44:17.484Z,24.10
2018-06-17T10:46:46.728Z,23.50
2018-06-17T10:49:15.209Z,22.90
2018-06-17T10:51:43.805Z,21.90
2018-06-17T10:54:13.846Z,21.40
2018-06-17T10:56:42.284Z,21.50
2018-06-17T10:59:10.784Z,21.80
2018-06-17T11:01:39.298Z,21.50
2018-06-17T11:04:07.773Z,21.00
2018-06-17T11:06:36.224Z,20.60
2018-06-17T11:09:07.407Z,20.80
2018-06-17T11:11:36.062Z,21.00
2018-06-17T11:14:04.690Z,20.80
2018-06-17T11:16:33.170Z,20.50
2018-06-17T11:19:01.881Z,20.30
2018-06-17T11:21:30.419Z,20.10
2018-06-17T11:23:59.029Z,20.10
2018-06-17T11:26:27.479Z,19.80
2018-06-17T11:28:55.976Z,19.60
2018-06-17T11:31:24.778Z,19.60
2018-06-17T11:33:53.331Z,19.60
2018-06-17T11:36:21.826Z,19.60
2018-06-17T11:38:50.418Z,19.50
2018-06-17T11:41:18.830Z,19.60
2018-06-17T11:43:47.759Z,19.40
2018-06-17T11:46:16.327Z,19.60
2018-06-17T11:48:45.042Z,19.60
2018-06-17T11:51:13.617Z,20.40
2018-06-17T11:53:42.128Z,20.80
2018-06-17T11:56:10.763Z,20.80
2018-06-17T11:58:39.186Z,21.00
2018-06-17T12:01:07.688Z,21.00
2018-06-17T12:03:36.531Z,20.80
2018-06-17T12:06:06.254Z,20.90
2018-06-17T12:08:34.722Z,20.50
2018-06-17T12:11:03.282Z,20.80
2018-06-17T12:13:31.812Z,20.80
2018-06-17T12:16:00.377Z,20.80
2018-06-17T12:18:28.870Z,20.30
2018-06-17T12:20:57.361Z,20.60
2018-06-17T12:23:25.882Z,20.90
2018-06-17T12:25:54.375Z,20.80
2018-06-17T12:28:23.014Z,20.80
2018-06-17T12:30:51.563Z,20.30
2018-06-17T12:33:20.081Z,20.20
2018-06-17T12:35:48.891Z,20.40
2018-06-17T12:38:17.367Z,20.30
2018-06-17T12:40:45.916Z,20.50
2018-06-17T12:45:43.260Z,20.60
2018-06-17T12:48:11.925Z,20.60
2018-06-17T12:50:41.840Z,21.00
2018-06-17T12:55:38.564Z,21.30
2018-06-17T12:58:07.013Z,21.10
2018-06-17T13:00:35.857Z,20.40
2018-06-17T13:03:04.504Z,20.10
2018-06-17T13:05:32.992Z,20.10
2018-06-17T13:08:03.892Z,20.00
2018-06-17T13:10:32.415Z,20.00
2018-06-17T13:13:00.871Z,20.10
2018-06-17T13:15:29.347Z,20.10
2018-06-17T13:17:57.813Z,20.30
2018-06-17T13:20:26.358Z,20.50
2018-06-17T13:22:55.080Z,19.80
2018-06-17T13:25:23.605Z,19.60
2018-06-17T13:27:52.862Z,19.40
2018-06-17T13:32:50.051Z,19.50
2018-06-17T13:35:18.858Z,19.50
2018-06-17T13:37:47.399Z,19.50
2018-06-17T13:40:16.958Z,19.50
2018-06-17T13:42:45.482Z,19.60
2018-06-17T13:45:13.941Z,19.40
2018-06-17T13:47:42.495Z,19.10
2018-06-17T13:50:11.070Z,19.10
2018-06-17T13:52:39.627Z,19.00
2018-06-17T13:55:08.571Z,19.20
2018-06-17T13:57:37.162Z,18.90
2018-06-17T14:00:06.650Z,19.10
2018-06-17T14:02:35.209Z,19.20
2018-06-17T14:05:03.963Z,19.20
2018-06-17T14:07:32.493Z,18.90
2018-06-17T14:10:00.993Z,18.80
2018-06-17T14:12:29.580Z,18.90
2018-06-17T14:14:58.237Z,18.50
2018-06-17T14:17:26.692Z,18.40
2018-06-17T14:19:55.292Z,18.60
2018-06-17T14:22:23.979Z,18.60
2018-06-17T14:24:53.010Z,18.50
2018-06-17T14:27:22.075Z,18.50
2018-06-17T14:29:50.597Z,18.50
2018-06-17T14:32:19.382Z,18.40
2018-06-17T14:34:48.009Z,18.30
2018-06-17T14:37:16.522Z,18.30
2018-06-17T14:42:18.481Z,18.70
2018-06-17T14:44:52.451Z,18.50
2018-06-17T14:47:26.133Z,18.40
2018-06-17T14:50:00.017Z,18.60
2018-06-17T14:52:34.075Z,18.60
2018-06-17T14:55:02.552Z,18.80
2018-06-17T14:57:31.563Z,19.00
2018-06-17T15:00:00.112Z,19.00
2018-06-17T15:02:28.645Z,19.10
2018-06-17T15:04:57.147Z,19.30
2018-06-17T15:07:25.644Z,19.60
2018-06-17T15:09:54.495Z,19.50
2018-06-17T15:12:23.051Z,19.30
2018-06-17T15:14:51.529Z,19.40
2018-06-17T15:17:20.103Z,19.50
2018-06-17T15:19:48.612Z,19.40
2018-06-17T15:22:17.100Z,19.40
2018-06-17T15:24:45.968Z,19.20
2018-06-17T15:27:14.557Z,19.50
2018-06-17T15:29:43.174Z,19.50
2018-06-17T15:33:16.669Z,19.60
2018-06-17T15:35:50.720Z,19.50
2018-06-17T15:38:24.642Z,19.70
2018-06-17T15:40:58.444Z,19.60
2018-06-17T15:43:27.339Z,19.70
2018-06-17T15:45:56.678Z,19.70
2018-06-17T15:48:25.240Z,19.80
2018-06-17T15:50:54.582Z,19.90
2018-06-17T15:53:23.059Z,19.90
2018-06-17T15:55:51.526Z,19.70
2018-06-17T15:58:20.041Z,19.60
2018-06-17T16:00:48.900Z,19.70
2018-06-17T16:03:17.379Z,19.90
2018-06-17T16:05:46.587Z,19.60
2018-06-17T16:08:15.584Z,19.80
2018-06-17T16:10:44.175Z,19.80
2018-06-17T16:13:17.926Z,19.90
2018-06-17T16:15:51.591Z,19.70
2018-06-17T16:18:25.178Z,19.60
2018-06-17T16:20:58.323Z,19.80
2018-06-17T16:23:27.101Z,19.90
2018-06-17T16:25:56.106Z,19.90
2018-06-17T16:28:24.580Z,19.80
2018-06-17T16:30:53.091Z,19.90
2018-06-17T16:33:21.531Z,19.90
2018-06-17T16:35:50.122Z,20.10
2018-06-17T16:38:18.592Z,20.30
2018-06-17T16:40:47.173Z,20.10
2018-06-17T16:43:15.946Z,19.50
2018-06-17T16:45:45.014Z,19.50
2018-06-17T16:50:45.880Z,19.10
2018-06-17T16:53:19.845Z,19.10
2018-06-17T16:55:53.484Z,18.90
2018-06-17T16:58:27.382Z,19.10
2018-06-17T17:00:56.330Z,19.10
2018-06-17T17:03:25.407Z,19.10
2018-06-17T17:05:53.913Z,19.20
2018-06-17T17:08:22.436Z,19.30
2018-06-17T17:10:50.971Z,19.20
2018-06-17T17:13:19.603Z,19.30
2018-06-17T17:18:16.360Z,19.10
2018-06-17T17:20:44.912Z,19.30
2018-06-17T17:23:13.687Z,19.10
2018-06-17T17:25:42.077Z,19.00
2018-06-17T17:28:10.772Z,19.00
2018-06-17T17:30:39.442Z,19.00
2018-06-17T17:33:13.226Z,18.80
2018-06-17T17:35:51.673Z,18.70
2018-06-17T17:38:29.546Z,18.70
2018-06-17T17:41:01.315Z,18.80
2018-06-17T17:43:29.832Z,19.50
2018-06-17T17:46:03.667Z,19.70
2018-06-17T17:48:32.142Z,19.90
2018-06-17T17:51:01.336Z,19.90
2018-06-17T17:53:30.144Z,20.00
2018-06-17T17:56:00.794Z,20.00
2018-06-17T17:58:29.667Z,19.80
2018-06-17T18:00:58.612Z,19.70
2018-06-17T18:03:27.630Z,19.80
2018-06-17T18:05:56.090Z,19.60
2018-06-17T18:08:24.598Z,19.30
2018-06-17T18:10:53.602Z,19.00
2018-06-17T18:13:22.308Z,18.80
2018-06-17T18:18:19.309Z,18.40
2018-06-17T18:20:48.164Z,18.30
2018-06-17T18:23:16.688Z,18.20
2018-06-17T18:25:50.649Z,18.10
2018-06-17T18:28:24.357Z,18.10
2018-06-17T18:31:00.282Z,18.10
2018-06-17T18:33:34.204Z,18.00
2018-06-17T18:36:09.972Z,18.00
2018-06-17T18:38:40.340Z,17.90
2018-06-17T18:41:09.800Z,17.80
2018-06-17T18:43:38.466Z,17.80
2018-06-17T18:46:07.053Z,17.80
2018-06-17T18:48:35.721Z,17.70
2018-06-17T18:51:04.330Z,17.70
2018-06-17T18:53:32.999Z,17.60
2018-06-17T18:56:01.581Z,17.60
2018-06-17T18:58:30.102Z,17.60
2018-06-17T19:00:59.966Z,17.50
2018-06-17T19:03:28.448Z,17.50
2018-06-17T19:05:57.015Z,17.40
2018-06-17T19:08:30.791Z,17.40
2018-06-17T19:11:04.731Z,17.30
2018-06-17T19:13:38.731Z,17.20
2018-06-17T19:16:15.035Z,17.30
2018-06-17T19:18:43.588Z,17.20
2018-06-17T19:21:20.913Z,17.20
2018-06-17T19:23:50.332Z,17.10
2018-06-17T19:26:19.377Z,17.10
2018-06-17T19:28:47.957Z,17.00
2018-06-17T19:31:16.550Z,17.00
2018-06-17T19:33:45.294Z,17.00
2018-06-17T19:36:13.891Z,17.00
2018-06-17T19:38:42.505Z,17.00
2018-06-17T19:41:11.246Z,16.90
2018-06-17T19:43:40.688Z,16.90
2018-06-17T19:46:09.294Z,16.80
2018-06-17T19:48:37.944Z,16.80
2018-06-17T19:51:11.729Z,16.70
2018-06-17T19:53:45.775Z,16.70
2018-06-17T19:56:20.021Z,16.60
2018-06-17T19:58:54.064Z,16.60
2018-06-17T20:01:22.628Z,16.60
2018-06-17T20:03:51.420Z,16.60
2018-06-17T20:06:20.062Z,16.50
2018-06-17T20:08:49.075Z,16.50
2018-06-17T20:11:17.744Z,16.50
2018-06-17T20:13:46.329Z,16.50
2018-06-17T20:16:14.925Z,16.50
2018-06-17T20:18:45.382Z,16.50
2018-06-17T20:21:13.921Z,16.50
2018-06-17T20:23:42.501Z,16.40
2018-06-17T20:26:11.535Z,16.40
2018-06-17T20:28:40.357Z,16.40
2018-06-17T20:31:09.367Z,16.30
2018-06-17T20:34:46.216Z,16.30
2018-06-17T20:37:20.309Z,16.30
2018-06-17T20:39:58.297Z,16.20
2018-06-17T20:42:32.430Z,16.30
2018-06-17T20:45:01.110Z,16.20
2018-06-17T20:47:30.338Z,16.30
2018-06-17T20:49:58.883Z,16.30
2018-06-17T20:52:27.741Z,16.20
2018-06-17T20:54:56.269Z,16.20
2018-06-17T20:57:25.127Z,16.10
2018-06-17T20:59:53.686Z,16.00
2018-06-17T21:02:22.305Z,15.90
2018-06-17T21:04:50.876Z,15.80
2018-06-17T21:07:19.787Z,15.70
2018-06-17T21:09:48.423Z,15.60
2018-06-17T21:14:45.607Z,15.40
2018-06-17T21:17:14.135Z,15.40
2018-06-17T21:19:47.771Z,15.30
2018-06-17T21:22:21.735Z,15.20
2018-06-17T21:24:55.785Z,15.20
2018-06-17T21:27:29.714Z,15.10
2018-06-17T21:29:58.552Z,15.00
2018-06-17T21:32:27.338Z,14.90
2018-06-17T21:34:56.127Z,14.90
2018-06-17T21:39:52.949Z,14.90
2018-06-17T21:42:21.888Z,15.00
2018-06-17T21:44:50.897Z,15.00
2018-06-17T21:47:20.565Z,14.90
2018-06-17T21:49:49.520Z,14.90
2018-06-17T21:52:18.099Z,14.80
2018-06-17T21:54:47.151Z,14.70
2018-06-17T21:57:15.709Z,14.70
2018-06-17T21:59:44.964Z,14.70
2018-06-17T22:02:13.797Z,14.70
2018-06-17T22:04:42.725Z,14.60
2018-06-17T22:07:13.130Z,14.60
2018-06-17T22:09:47.009Z,14.60
2018-06-17T22:12:21.420Z,14.60
2018-06-17T22:14:55.369Z,14.60
2018-06-17T22:17:29.171Z,14.70
2018-06-17T22:19:57.937Z,14.70
2018-06-17T22:22:27.288Z,14.70
2018-06-17T22:24:56.291Z,14.70
2018-06-17T22:27:24.916Z,14.60
2018-06-17T22:29:53.661Z,14.60
2018-06-17T22:32:22.240Z,14.60
2018-06-17T22:37:19.448Z,14.50
2018-06-17T22:39:47.899Z,14.40
2018-06-17T22:42:16.426Z,14.40
2018-06-17T22:44:44.965Z,14.40
2018-06-17T22:47:17.977Z,14.40
2018-06-17T22:49:46.560Z,14.50
2018-06-17T22:52:15.044Z,14.60
2018-06-17T22:54:51.768Z,14.60
2018-06-17T22:57:25.534Z,14.60
2018-06-17T22:59:59.542Z,14.60
2018-06-17T23:02:33.561Z,14.60
2018-06-17T23:05:07.369Z,14.70
2018-06-17T23:07:41.181Z,14.60
2018-06-17T23:10:11.414Z,14.60
2018-06-17T23:12:40.243Z,14.60
2018-06-17T23:15:08.833Z,14.60
2018-06-17T23:17:37.300Z,14.60
2018-06-17T23:20:05.973Z,14.70
2018-06-17T23:22:34.533Z,14.70
2018-06-17T23:25:03.269Z,14.70
2018-06-17T23:30:00.136Z,14.70
2018-06-17T23:32:28.728Z,14.70
2018-06-17T23:34:57.444Z,14.70
2018-06-17T23:37:26.616Z,14.70
2018-06-17T23:39:55.052Z,14.70
2018-06-17T23:42:23.538Z,14.80
2018-06-17T23:44:52.034Z,14.80
2018-06-17T23:47:25.837Z,14.80
2018-06-17T23:49:59.777Z,14.80
2018-06-17T23:52:33.547Z,14.80
2018-06-17T23:55:07.851Z,14.80
2018-06-17T23:57:36.481Z,14.80
